createdAt,value
2022-10-21T00:01:29.917Z,69.77
2022-10-21T00:03:59.000Z,69.82
2022-10-21T00:06:27.721Z,69.74
2022-10-21T00:08:57.950Z,69.49
2022-10-21T00:11:28.280Z,69.71
2022-10-21T00:13:57.120Z,69.73
2022-10-21T00:16:25.907Z,69.87
2022-10-21T00:18:54.740Z,69.77
2022-10-21T00:21:23.806Z,69.43
2022-10-21T00:23:52.608Z,69.77
2022-10-21T00:26:22.720Z,69.30
2022-10-21T00:28:57.318Z,69.34
2022-10-21T00:31:26.544Z,69.10
2022-10-21T00:33:55.309Z,69.67
2022-10-21T00:36:24.108Z,69.37
2022-10-21T00:38:52.904Z,69.36
2022-10-21T00:41:21.709Z,69.50
2022-10-21T00:43:59.573Z,69.85
2022-10-21T00:47:13.954Z,69.78
2022-10-21T00:49:55.927Z,69.26
2022-10-21T00:52:25.551Z,69.69
2022-10-21T00:54:58.364Z,69.44
2022-10-21T00:57:28.572Z,69.05
2022-10-21T01:00:00.366Z,69.39
2022-10-21T01:02:30.344Z,69.62
2022-10-21T01:05:02.006Z,69.27
2022-10-21T01:07:36.334Z,69.52
2022-10-21T01:10:08.477Z,69.25
2022-10-21T01:12:43.114Z,69.28
2022-10-21T01:15:34.751Z,69.14
2022-10-21T01:18:12.383Z,69.06
2022-10-21T01:21:34.322Z,69.16
2022-10-21T01:24:30.113Z,69.33
2022-10-21T01:26:58.823Z,69.03
2022-10-21T01:29:55.650Z,69.00
2022-10-21T01:32:31.377Z,69.51
2022-10-21T01:35:09.388Z,69.17
2022-10-21T01:37:38.410Z,69.35
2022-10-21T01:40:15.577Z,69.50
2022-10-21T01:42:50.213Z,69.21
2022-10-21T01:45:43.824Z,69.38
2022-10-21T01:48:20.109Z,69.68
2022-10-21T01:50:56.164Z,69.58
2022-10-21T01:53:29.754Z,69.46
2022-10-21T01:56:02.811Z,69.35
2022-10-21T01:58:36.017Z,69.74
2022-10-21T02:01:09.269Z,69.83
2022-10-21T02:03:42.953Z,69.93
2022-10-21T02:06:14.663Z,70.03
2022-10-21T02:08:44.077Z,69.77
2022-10-21T02:11:13.520Z,69.59
2022-10-21T02:14:11.207Z,69.30
2022-10-21T02:16:41.823Z,69.67
2022-10-21T02:19:20.823Z,69.43
2022-10-21T02:21:53.370Z,69.26
2022-10-21T02:24:31.548Z,69.94
2022-10-21T02:27:00.621Z,69.47
2022-10-21T02:29:34.904Z,69.42
2022-10-21T02:32:11.003Z,69.58
2022-10-21T02:35:01.523Z,69.99
2022-10-21T02:37:33.558Z,69.76
2022-10-21T02:40:18.850Z,69.89
2022-10-21T02:42:54.056Z,69.08
2022-10-21T02:45:23.925Z,69.36
2022-10-21T02:47:53.055Z,69.32
2022-10-21T02:50:22.130Z,69.30
2022-10-21T02:52:50.959Z,69.56
2022-10-21T02:55:19.876Z,68.47
2022-10-21T02:57:48.840Z,68.77
2022-10-21T03:00:18.684Z,68.98
2022-10-21T03:02:47.671Z,69.10
2022-10-21T03:05:16.829Z,68.94
2022-10-21T03:07:45.650Z,67.95
2022-10-21T03:10:15.395Z,67.37
2022-10-21T03:12:44.234Z,67.95
2022-10-21T03:15:13.132Z,67.73
2022-10-21T03:17:42.220Z,67.58
2022-10-21T03:20:11.383Z,67.59
2022-10-21T03:22:40.364Z,67.54
2022-10-21T03:25:09.626Z,67.53
2022-10-21T03:27:38.757Z,67.28
2022-10-21T03:30:08.880Z,66.68
2022-10-21T03:32:38.071Z,64.93
2022-10-21T03:35:07.672Z,64.81
2022-10-21T03:37:36.646Z,64.87
2022-10-21T03:40:12.293Z,64.44
2022-10-21T03:42:41.743Z,64.19
2022-10-21T03:45:11.465Z,64.58
2022-10-21T03:47:40.302Z,64.50
2022-10-21T03:50:13.064Z,64.53
2022-10-21T03:52:44.543Z,64.67
2022-10-21T03:55:13.461Z,64.28
2022-10-21T03:57:42.675Z,64.67
2022-10-21T04:02:41.656Z,63.93
2022-10-21T04:05:10.862Z,64.28
2022-10-21T04:07:40.037Z,63.96
2022-10-21T04:10:10.783Z,64.42
2022-10-21T04:12:41.422Z,63.99
2022-10-21T04:15:14.306Z,64.60
2022-10-21T04:17:45.846Z,64.13
2022-10-21T04:20:14.929Z,63.38
2022-10-21T04:22:43.760Z,62.16
2022-10-21T04:25:12.551Z,59.90
2022-10-21T04:27:41.399Z,60.51
2022-10-21T04:30:10.523Z,59.37
2022-10-21T04:32:39.586Z,58.92
2022-10-21T04:35:08.449Z,58.73
2022-10-21T04:37:40.592Z,58.42
2022-10-21T04:40:10.254Z,57.64
2022-10-21T04:42:39.181Z,56.82
2022-10-21T04:45:11.533Z,53.92
2022-10-21T04:47:40.440Z,50.51
2022-10-21T04:50:09.796Z,48.31
2022-10-21T04:52:39.084Z,44.87
2022-10-21T04:55:09.317Z,41.63
2022-10-21T04:57:38.251Z,42.08
2022-10-21T05:00:09.295Z,42.80
2022-10-21T05:02:38.446Z,42.29
2022-10-21T05:05:07.848Z,42.98
2022-10-21T05:07:36.605Z,40.92
2022-10-21T05:10:06.033Z,37.90
2022-10-21T05:15:05.073Z,39.02
2022-10-21T05:17:33.990Z,39.47
2022-10-21T05:20:04.752Z,40.53
2022-10-21T05:22:33.792Z,39.64
2022-10-21T05:25:02.622Z,38.67
2022-10-21T05:27:31.598Z,39.73
2022-10-21T05:30:00.707Z,40.90
2022-10-21T05:32:29.784Z,41.59
2022-10-21T05:34:58.749Z,41.45
2022-10-21T05:37:27.983Z,40.64
2022-10-21T05:39:56.892Z,39.83
2022-10-21T05:42:25.816Z,39.96
2022-10-21T05:44:54.699Z,37.84
2022-10-21T05:47:24.649Z,37.66
2022-10-21T05:49:53.648Z,36.39
2022-10-21T05:52:22.553Z,37.40
2022-10-21T05:54:51.408Z,33.98
2022-10-21T05:57:20.294Z,33.88
2022-10-21T05:59:49.210Z,34.39
2022-10-21T06:02:19.280Z,36.34
2022-10-21T06:04:48.585Z,36.43
2022-10-21T06:07:17.505Z,36.97
2022-10-21T06:09:46.255Z,35.08
2022-10-21T06:12:15.097Z,34.93
2022-10-21T06:14:44.023Z,35.37
2022-10-21T06:17:12.993Z,36.22
2022-10-21T06:19:43.214Z,37.23
2022-10-21T06:22:13.730Z,37.25
2022-10-21T06:24:42.612Z,35.17
2022-10-21T06:27:11.461Z,34.70
2022-10-21T06:29:40.473Z,34.25
2022-10-21T06:32:09.309Z,34.33
2022-10-21T06:34:38.372Z,32.89
2022-10-21T06:37:07.666Z,32.93
2022-10-21T06:39:36.477Z,32.79
2022-10-21T06:42:05.402Z,32.71
2022-10-21T06:44:43.521Z,31.73
2022-10-21T06:47:12.696Z,31.81
2022-10-21T06:49:42.219Z,33.13
2022-10-21T06:52:11.291Z,34.18
2022-10-21T06:54:40.297Z,33.82
2022-10-21T06:57:09.079Z,34.16
2022-10-21T06:59:37.878Z,33.27
2022-10-21T07:02:07.631Z,32.81
2022-10-21T07:04:36.773Z,32.32
2022-10-21T07:07:06.234Z,32.23
2022-10-21T07:09:35.320Z,32.73
2022-10-21T07:12:04.310Z,32.03
2022-10-21T07:14:33.034Z,31.75
2022-10-21T07:17:01.882Z,30.73
2022-10-21T07:19:30.758Z,31.22
2022-10-21T07:21:59.877Z,30.92
2022-10-21T07:24:28.714Z,30.73
2022-10-21T07:26:58.147Z,31.91
2022-10-21T07:29:27.092Z,32.71
2022-10-21T07:31:55.944Z,32.05
2022-10-21T07:34:26.653Z,30.90
2022-10-21T07:36:55.500Z,31.51
2022-10-21T07:39:27.588Z,31.83
2022-10-21T07:41:58.839Z,30.84
2022-10-21T07:44:27.955Z,31.57
2022-10-21T07:46:56.915Z,31.45
2022-10-21T07:49:26.130Z,31.54
2022-10-21T07:51:55.117Z,32.46
2022-10-21T07:54:24.247Z,31.91
2022-10-21T07:56:53.158Z,32.54
2022-10-21T07:59:24.165Z,32.76
2022-10-21T08:01:54.619Z,32.46
2022-10-21T08:04:32.541Z,32.93
2022-10-21T08:07:01.368Z,33.03
2022-10-21T08:09:30.235Z,32.35
2022-10-21T08:11:59.518Z,33.02
2022-10-21T08:14:28.309Z,32.81
2022-10-21T08:16:57.165Z,33.96
2022-10-21T08:19:30.046Z,33.75
2022-10-21T08:21:59.942Z,33.83
2022-10-21T08:24:29.444Z,34.40
2022-10-21T08:26:58.340Z,34.81
2022-10-21T08:29:27.354Z,35.65
2022-10-21T08:31:56.169Z,35.51
2022-10-21T08:34:25.089Z,34.97
2022-10-21T08:36:53.982Z,35.44
2022-10-21T08:39:25.618Z,36.86
2022-10-21T08:41:59.963Z,37.65
2022-10-21T08:44:45.398Z,38.21
2022-10-21T08:47:45.846Z,38.58
2022-10-21T08:50:23.070Z,39.74
2022-10-21T08:52:58.067Z,41.68
2022-10-21T08:55:37.703Z,43.25
2022-10-21T08:58:06.870Z,44.10
2022-10-21T09:00:47.784Z,44.94
2022-10-21T09:03:56.082Z,45.41
2022-10-21T09:06:49.350Z,46.90
2022-10-21T09:09:29.012Z,47.15
2022-10-21T09:12:21.280Z,48.06
2022-10-21T09:15:11.543Z,47.68
2022-10-21T09:17:52.799Z,48.10
2022-10-21T09:20:36.545Z,48.45
2022-10-21T09:23:43.590Z,49.34
2022-10-21T09:26:15.411Z,49.92
2022-10-21T09:28:45.367Z,50.15
2022-10-21T09:31:18.377Z,50.46
2022-10-21T09:33:59.047Z,50.24
2022-10-21T09:36:48.594Z,50.73
2022-10-21T09:39:40.353Z,50.51
2022-10-21T09:42:29.250Z,50.47
2022-10-21T09:45:01.910Z,51.13
2022-10-21T09:47:33.699Z,51.47
2022-10-21T09:50:08.057Z,51.70
2022-10-21T09:52:38.537Z,51.92
2022-10-21T09:55:13.716Z,52.53
2022-10-21T09:57:55.195Z,52.14
2022-10-21T10:00:50.819Z,53.04
2022-10-21T10:03:38.047Z,52.84
2022-10-21T10:06:07.129Z,53.43
2022-10-21T10:08:47.975Z,53.88
2022-10-21T10:11:23.827Z,53.75
2022-10-21T10:13:54.232Z,54.18
2022-10-21T10:16:30.240Z,54.37
2022-10-21T10:19:23.370Z,54.01
2022-10-21T10:22:12.995Z,54.47
2022-10-21T10:24:43.382Z,54.59
2022-10-21T10:27:27.250Z,54.56
2022-10-21T10:29:59.162Z,55.03
2022-10-21T10:32:32.286Z,55.40
2022-10-21T10:35:05.558Z,55.56
2022-10-21T10:37:37.528Z,55.63
2022-10-21T10:40:09.974Z,55.13
2022-10-21T10:42:46.471Z,55.37
2022-10-21T10:45:22.755Z,55.81
2022-10-21T10:47:54.590Z,56.24
2022-10-21T10:50:38.721Z,56.28
2022-10-21T10:53:30.109Z,56.47
2022-10-21T10:56:31.155Z,56.84
2022-10-21T10:59:18.235Z,56.84
2022-10-21T11:02:09.668Z,57.07
2022-10-21T11:04:42.893Z,57.75
2022-10-21T11:07:36.848Z,58.18
2022-10-21T11:10:14.240Z,58.08
2022-10-21T11:12:43.140Z,58.78
2022-10-21T11:15:16.550Z,58.59
2022-10-21T11:18:17.107Z,58.41
2022-10-21T11:21:15.114Z,58.29
2022-10-21T11:24:08.180Z,58.51
2022-10-21T11:26:54.926Z,58.44
2022-10-21T11:29:28.859Z,58.79
2022-10-21T11:32:22.258Z,58.47
2022-10-21T11:35:01.054Z,58.92
2022-10-21T11:37:50.712Z,59.33
2022-10-21T11:40:34.682Z,59.02
2022-10-21T11:43:16.602Z,59.48
2022-10-21T11:46:09.464Z,59.12
2022-10-21T11:49:05.540Z,59.13
2022-10-21T11:52:04.083Z,58.96
2022-10-21T11:55:07.967Z,58.75
2022-10-21T11:57:54.672Z,58.75
2022-10-21T12:00:27.196Z,58.63
2022-10-21T12:03:08.047Z,58.38
2022-10-21T12:05:46.797Z,58.57
2022-10-21T12:08:39.688Z,58.15
2022-10-21T12:11:29.998Z,58.16
2022-10-21T12:14:01.318Z,57.89
2022-10-21T12:16:34.877Z,57.69
2022-10-21T12:19:07.665Z,57.56
2022-10-21T12:21:40.050Z,57.89
2022-10-21T12:24:12.039Z,57.96
2022-10-21T12:26:49.484Z,57.66
2022-10-21T12:29:18.187Z,58.15
2022-10-21T12:31:57.610Z,57.87
2022-10-21T12:34:26.593Z,58.09
2022-10-21T12:36:55.617Z,58.12
2022-10-21T12:39:36.704Z,57.86
2022-10-21T12:42:16.913Z,57.88
2022-10-21T12:44:53.508Z,57.90
2022-10-21T12:47:25.084Z,57.77
2022-10-21T12:50:30.301Z,57.87
2022-10-21T12:53:20.690Z,57.70
2022-10-21T12:55:54.010Z,57.90
2022-10-21T12:58:38.170Z,57.68
2022-10-21T13:01:36.692Z,57.46
2022-10-21T13:04:26.424Z,57.79
2022-10-21T13:06:58.340Z,57.50
2022-10-21T13:09:52.698Z,57.68
2022-10-21T13:12:26.559Z,57.50
2022-10-21T13:15:24.194Z,57.46
2022-10-21T13:17:54.069Z,57.52
2022-10-21T13:20:26.430Z,57.74
2022-10-21T13:23:16.925Z,57.73
2022-10-21T13:25:48.303Z,57.66
2022-10-21T13:28:22.924Z,57.55
2022-10-21T13:30:51.654Z,57.68
2022-10-21T13:33:25.837Z,57.80
2022-10-21T13:36:03.111Z,57.63
2022-10-21T13:38:35.478Z,57.67
2022-10-21T13:41:08.071Z,57.70
2022-10-21T13:43:47.692Z,57.92
2022-10-21T13:46:18.127Z,57.89
2022-10-21T13:48:49.532Z,57.72
2022-10-21T13:51:27.014Z,57.72
2022-10-21T13:54:00.931Z,57.87
2022-10-21T13:56:34.450Z,57.94
2022-10-21T13:59:05.996Z,57.96
2022-10-21T14:01:50.432Z,57.96
2022-10-21T14:04:25.564Z,57.93
2022-10-21T14:07:09.183Z,57.87
2022-10-21T14:09:48.751Z,57.74
2022-10-21T14:12:33.444Z,57.87
2022-10-21T14:15:17.641Z,57.76
2022-10-21T14:17:58.545Z,57.74
2022-10-21T14:20:42.092Z,57.75
2022-10-21T14:23:20.226Z,57.77
2022-10-21T14:25:50.478Z,57.65
2022-10-21T14:28:21.532Z,57.83
2022-10-21T14:30:53.796Z,57.89
2022-10-21T14:33:29.161Z,58.19
2022-10-21T14:36:15.797Z,58.04
2022-10-21T14:39:00.806Z,57.89
2022-10-21T14:41:38.140Z,58.11
2022-10-21T14:44:21.633Z,58.17
2022-10-21T14:46:54.871Z,58.26
2022-10-21T14:49:33.623Z,58.29
2022-10-21T14:52:06.661Z,58.19
2022-10-21T14:54:44.175Z,58.41
2022-10-21T14:57:35.098Z,58.38
2022-10-21T15:00:05.807Z,58.59
2022-10-21T15:02:38.398Z,58.49
2022-10-21T15:05:49.340Z,58.76
2022-10-21T15:08:21.391Z,58.49
2022-10-21T15:11:04.591Z,58.60
2022-10-21T15:13:34.211Z,58.26
2022-10-21T15:16:04.599Z,58.61
2022-10-21T15:18:45.228Z,58.58
2022-10-21T15:21:37.552Z,58.55
2022-10-21T15:24:08.055Z,58.64
2022-10-21T15:26:40.183Z,58.48
2022-10-21T15:29:29.225Z,58.51
2022-10-21T15:31:58.823Z,58.56
2022-10-21T15:34:31.639Z,58.76
2022-10-21T15:37:00.437Z,58.50
2022-10-21T15:39:29.974Z,58.69
2022-10-21T15:41:59.633Z,58.93
2022-10-21T15:44:31.221Z,58.71
2022-10-21T15:47:03.145Z,58.84
2022-10-21T15:49:47.286Z,58.47
2022-10-21T15:52:16.109Z,58.43
2022-10-21T15:54:45.185Z,58.65
2022-10-21T15:57:18.054Z,58.67
2022-10-21T15:59:47.861Z,58.89
2022-10-21T16:02:18.736Z,58.87
2022-10-21T16:04:47.887Z,59.11
2022-10-21T16:07:23.729Z,59.31
2022-10-21T16:09:52.582Z,59.15
2022-10-21T16:12:23.231Z,59.61
2022-10-21T16:14:52.096Z,59.70
2022-10-21T16:17:21.849Z,59.76
2022-10-21T16:19:50.689Z,59.82
2022-10-21T16:22:22.972Z,59.73
2022-10-21T16:24:51.735Z,59.86
2022-10-21T16:27:31.246Z,60.13
2022-10-21T16:30:27.827Z,60.03
2022-10-21T16:32:57.809Z,60.31
2022-10-21T16:35:26.940Z,59.99
2022-10-21T16:37:56.718Z,60.27
2022-10-21T16:40:29.809Z,60.27
2022-10-21T16:42:58.885Z,60.35
2022-10-21T16:45:32.632Z,60.79
2022-10-21T16:48:04.520Z,60.76
2022-10-21T16:50:41.097Z,60.71
2022-10-21T16:53:15.575Z,60.33
2022-10-21T16:55:44.764Z,60.46
2022-10-21T16:58:13.875Z,60.73
2022-10-21T17:00:43.756Z,60.88
2022-10-21T17:03:13.150Z,60.93
2022-10-21T17:05:42.028Z,60.90
2022-10-21T17:08:11.228Z,61.05
2022-10-21T17:10:40.046Z,60.88
2022-10-21T17:13:10.206Z,60.95
2022-10-21T17:15:39.779Z,61.16
2022-10-21T17:18:11.817Z,60.98
2022-10-21T17:20:44.030Z,61.34
2022-10-21T17:23:12.883Z,61.29
2022-10-21T17:25:41.697Z,61.33
2022-10-21T17:28:10.465Z,61.20
2022-10-21T17:30:39.241Z,61.26
2022-10-21T17:33:10.622Z,61.50
2022-10-21T17:35:42.253Z,61.29
2022-10-21T17:38:10.985Z,61.29
2022-10-21T17:40:39.801Z,61.26
2022-10-21T17:43:08.585Z,61.40
2022-10-21T17:45:37.793Z,61.51
2022-10-21T17:48:06.807Z,61.25
2022-10-21T17:50:37.018Z,61.07
2022-10-21T17:53:05.847Z,61.39
2022-10-21T17:55:34.588Z,61.14
2022-10-21T17:58:03.609Z,61.44
2022-10-21T18:00:32.941Z,61.69
2022-10-21T18:03:01.804Z,61.34
2022-10-21T18:05:30.660Z,61.62
2022-10-21T18:07:59.430Z,61.61
2022-10-21T18:10:28.253Z,61.52
2022-10-21T18:12:57.031Z,61.46
2022-10-21T18:15:28.421Z,61.70
2022-10-21T18:17:57.237Z,61.92
2022-10-21T18:20:26.089Z,61.86
2022-10-21T18:22:54.925Z,61.87
2022-10-21T18:25:23.769Z,61.80
2022-10-21T18:27:52.569Z,61.91
2022-10-21T18:30:21.461Z,62.13
2022-10-21T18:32:50.240Z,62.12
2022-10-21T18:35:20.510Z,62.25
2022-10-21T18:37:50.383Z,62.07
2022-10-21T18:40:20.091Z,62.02
2022-10-21T18:42:49.068Z,61.87
2022-10-21T18:45:17.921Z,62.05
2022-10-21T18:47:48.060Z,62.03
2022-10-21T18:50:17.352Z,61.89
2022-10-21T18:52:46.224Z,62.13
2022-10-21T18:55:15.047Z,62.27
2022-10-21T18:57:44.084Z,62.33
2022-10-21T19:00:13.859Z,62.04
2022-10-21T19:02:42.826Z,62.35
2022-10-21T19:05:11.825Z,62.62
2022-10-21T19:07:40.724Z,62.54
2022-10-21T19:10:09.944Z,62.11
2022-10-21T19:12:38.740Z,62.23
2022-10-21T19:15:08.129Z,62.79
2022-10-21T19:17:37.803Z,62.93
2022-10-21T19:20:07.651Z,63.05
2022-10-21T19:22:36.420Z,62.79
2022-10-21T19:25:05.833Z,62.79
2022-10-21T19:27:34.619Z,63.24
2022-10-21T19:30:03.503Z,63.09
2022-10-21T19:32:32.964Z,62.73
2022-10-21T19:35:01.725Z,62.94
2022-10-21T19:37:32.165Z,63.51
2022-10-21T19:40:00.914Z,63.12
2022-10-21T19:42:32.782Z,63.25
2022-10-21T19:45:01.613Z,63.64
2022-10-21T19:47:32.083Z,63.50
2022-10-21T19:50:00.870Z,63.28
2022-10-21T19:52:30.204Z,63.72
2022-10-21T19:54:59.016Z,63.38
2022-10-21T19:57:27.902Z,63.44
2022-10-21T19:59:56.719Z,63.98
2022-10-21T20:02:26.166Z,63.98
2022-10-21T20:04:55.059Z,63.65
2022-10-21T20:07:23.968Z,63.96
2022-10-21T20:09:52.884Z,64.27
2022-10-21T20:12:21.740Z,64.37
2022-10-21T20:14:50.533Z,64.00
2022-10-21T20:17:19.375Z,63.92
2022-10-21T20:19:49.365Z,64.32
2022-10-21T20:22:18.363Z,63.81
2022-10-21T20:24:47.135Z,64.44
2022-10-21T20:27:15.948Z,64.25
2022-10-21T20:29:44.960Z,64.21
2022-10-21T20:32:13.766Z,64.32
2022-10-21T20:34:44.037Z,64.63
2022-10-21T20:37:12.793Z,64.32
2022-10-21T20:39:41.560Z,64.74
2022-10-21T20:42:10.580Z,64.41
2022-10-21T20:44:39.500Z,64.45
2022-10-21T20:47:08.315Z,64.59
2022-10-21T20:49:37.082Z,64.68
2022-10-21T20:52:05.852Z,64.79
2022-10-21T20:54:34.702Z,64.70
2022-10-21T20:57:03.510Z,64.81
2022-10-21T20:59:32.312Z,64.61
2022-10-21T21:02:01.749Z,64.74
2022-10-21T21:04:30.787Z,64.66
2022-10-21T21:06:59.652Z,64.72
2022-10-21T21:09:50.255Z,64.68
2022-10-21T21:12:17.863Z,64.52
2022-10-21T21:14:46.629Z,64.64
2022-10-21T21:17:15.382Z,64.83
2022-10-21T21:19:44.303Z,64.97
2022-10-21T21:22:13.086Z,65.02
2022-10-21T21:24:42.785Z,64.98
2022-10-21T21:27:11.564Z,65.11
2022-10-21T21:29:40.375Z,65.15
2022-10-21T21:32:09.259Z,65.03
2022-10-21T21:34:39.251Z,65.25
2022-10-21T21:37:08.078Z,64.82
2022-10-21T21:39:36.806Z,65.36
2022-10-21T21:42:05.714Z,65.06
2022-10-21T21:44:35.010Z,64.99
2022-10-21T21:47:03.786Z,64.85
2022-10-21T21:49:32.594Z,65.16
2022-10-21T21:52:01.379Z,65.20
2022-10-21T21:54:30.314Z,65.50
2022-10-21T21:57:26.385Z,65.57
2022-10-21T21:59:48.131Z,65.42
2022-10-21T22:02:17.350Z,65.50
2022-10-21T22:04:46.995Z,65.53
2022-10-21T22:07:15.900Z,65.56
2022-10-21T22:09:44.749Z,65.39
2022-10-21T22:12:14.823Z,65.84
2022-10-21T22:14:43.947Z,65.79
2022-10-21T22:17:12.782Z,65.48
2022-10-21T22:19:41.668Z,65.47
2022-10-21T22:22:10.388Z,65.39
2022-10-21T22:24:39.293Z,65.68
2022-10-21T22:27:08.116Z,65.64
2022-10-21T22:29:37.210Z,66.01
2022-10-21T22:32:06.120Z,65.85
2022-10-21T22:34:34.937Z,65.92
2022-10-21T22:37:03.817Z,66.22
2022-10-21T22:39:32.688Z,65.85
2022-10-21T22:42:01.483Z,65.69
2022-10-21T22:44:30.247Z,66.03
2022-10-21T22:46:59.070Z,65.92
2022-10-21T22:49:27.922Z,65.81
2022-10-21T22:51:56.798Z,65.77
2022-10-21T22:54:47.939Z,65.87
2022-10-21T22:57:14.296Z,66.06
2022-10-21T22:59:44.150Z,66.16
2022-10-21T23:02:13.930Z,66.13
2022-10-21T23:04:42.785Z,66.11
2022-10-21T23:07:11.705Z,66.22
2022-10-21T23:09:40.505Z,66.17
2022-10-21T23:12:09.316Z,66.28
2022-10-21T23:14:38.073Z,66.07
2022-10-21T23:17:06.848Z,66.35
2022-10-21T23:19:35.625Z,66.54
2022-10-21T23:22:04.435Z,66.63
2022-10-21T23:24:33.237Z,66.38
2022-10-21T23:27:02.039Z,66.65
2022-10-21T23:29:30.898Z,66.80
2022-10-21T23:31:59.663Z,66.64
2022-10-21T23:34:28.446Z,66.88
2022-10-21T23:36:57.601Z,67.01
2022-10-21T23:39:26.703Z,66.97
2022-10-21T23:41:55.820Z,66.88
2022-10-21T23:44:24.572Z,66.65
2022-10-21T23:46:53.438Z,66.57
2022-10-21T23:49:22.568Z,67.06
2022-10-21T23:51:51.645Z,67.10
2022-10-21T23:54:20.458Z,67.02
2022-10-21T23:56:49.315Z,66.71
2022-10-21T23:59:18.059Z,67.13
